sensor_id;sensor_type;location;lat;lon;timestamp;pressure;altitude;pressure_sealevel;temperature;humidity
71970;BME280;59838;52.152;5.436;2022-08-19T00:00:30;101478.41;;;16.51;91.46
71970;BME280;59838;52.152;5.436;2022-08-19T00:03:04;101483.88;;;16.50;91.19
71970;BME280;59838;52.152;5.436;2022-08-19T00:05:37;101478.44;;;16.44;90.82
71970;BME280;59838;52.152;5.436;2022-08-19T00:08:11;101474.41;;;16.42;90.56
71970;BME280;59838;52.152;5.436;2022-08-19T00:10:38;101486.31;;;16.38;89.97
71970;BME280;59838;52.152;5.436;2022-08-19T00:13:10;101490.34;;;16.34;90.03
71970;BME280;59838;52.152;5.436;2022-08-19T00:15:37;101491.78;;;16.30;90.21
71970;BME280;59838;52.152;5.436;2022-08-19T00:18:11;101494.63;;;16.28;90.27
71970;BME280;59838;52.152;5.436;2022-08-19T00:20:38;101499.84;;;16.28;90.33
71970;BME280;59838;52.152;5.436;2022-08-19T00:23:12;101494.00;;;16.26;89.92
71970;BME280;59838;52.152;5.436;2022-08-19T00:25:45;101489.38;;;16.21;90.25
71970;BME280;59838;52.152;5.436;2022-08-19T00:28:20;101486.53;;;16.16;90.53
71970;BME280;59838;52.152;5.436;2022-08-19T00:30:53;101480.72;;;16.14;90.97
71970;BME280;59838;52.152;5.436;2022-08-19T00:33:19;101483.13;;;16.09;91.31
71970;BME280;59838;52.152;5.436;2022-08-19T00:35:55;101487.97;;;16.05;91.49
71970;BME280;59838;52.152;5.436;2022-08-19T00:38:22;101489.97;;;16.03;91.23
71970;BME280;59838;52.152;5.436;2022-08-19T00:41:06;101480.72;;;15.94;90.88
71970;BME280;59838;52.152;5.436;2022-08-19T00:43:39;101479.69;;;15.95;91.51
71970;BME280;59838;52.152;5.436;2022-08-19T00:46:07;101481.13;;;15.98;92.07
71970;BME280;59838;52.152;5.436;2022-08-19T00:48:41;101477.50;;;15.99;92.09
71970;BME280;59838;52.152;5.436;2022-08-19T00:51:08;101482.94;;;15.97;92.38
71970;BME280;59838;52.152;5.436;2022-08-19T00:53:41;101476.09;;;15.96;92.41
71970;BME280;59838;52.152;5.436;2022-08-19T00:56:11;101483.94;;;15.96;92.08
71970;BME280;59838;52.152;5.436;2022-08-19T00:58:38;101481.31;;;15.96;92.44
71970;BME280;59838;52.152;5.436;2022-08-19T01:01:13;101478.50;;;15.98;92.76
71970;BME280;59838;52.152;5.436;2022-08-19T01:03:40;101478.72;;;15.96;92.78
71970;BME280;59838;52.152;5.436;2022-08-19T01:06:23;101477.28;;;15.94;92.85
71970;BME280;59838;52.152;5.436;2022-08-19T01:08:59;101478.91;;;15.88;92.13
71970;BME280;59838;52.152;5.436;2022-08-19T01:11:35;101481.53;;;15.81;91.70
71970;BME280;59838;52.152;5.436;2022-08-19T01:14:10;101481.34;;;15.76;91.80
71970;BME280;59838;52.152;5.436;2022-08-19T01:16:45;101470.84;;;15.76;92.00
71970;BME280;59838;52.152;5.436;2022-08-19T01:19:29;101476.09;;;15.76;92.15
71970;BME280;59838;52.152;5.436;2022-08-19T01:25:31;101477.66;;;15.64;92.31
71970;BME280;59838;52.152;5.436;2022-08-19T01:28:05;101473.22;;;15.64;92.47
71970;BME280;59838;52.152;5.436;2022-08-19T01:30:39;101484.53;;;15.65;92.44
71970;BME280;59838;52.152;5.436;2022-08-19T01:33:16;101482.69;;;15.59;92.46
71970;BME280;59838;52.152;5.436;2022-08-19T01:35:50;101480.47;;;15.56;92.15
71970;BME280;59838;52.152;5.436;2022-08-19T01:38:26;101486.31;;;15.51;92.27
71970;BME280;59838;52.152;5.436;2022-08-19T01:41:10;101484.69;;;15.50;92.30
71970;BME280;59838;52.152;5.436;2022-08-19T01:43:44;101485.50;;;15.50;92.53
71970;BME280;59838;52.152;5.436;2022-08-19T01:46:31;101485.91;;;15.54;92.89
71970;BME280;59838;52.152;5.436;2022-08-19T01:49:06;101482.09;;;15.57;93.21
71970;BME280;59838;52.152;5.436;2022-08-19T01:51:34;101476.22;;;15.54;93.27
71970;BME280;59838;52.152;5.436;2022-08-19T01:54:08;101483.69;;;15.51;92.90
71970;BME280;59838;52.152;5.436;2022-08-19T01:56:55;101484.66;;;15.43;92.43
71970;BME280;59838;52.152;5.436;2022-08-19T01:59:24;101478.84;;;15.41;92.47
71970;BME280;59838;52.152;5.436;2022-08-19T02:01:56;101485.25;;;15.39;92.42
71970;BME280;59838;52.152;5.436;2022-08-19T02:04:23;101491.31;;;15.39;92.15
71970;BME280;59838;52.152;5.436;2022-08-19T02:06:57;101486.88;;;15.33;91.89
71970;BME280;59838;52.152;5.436;2022-08-19T02:09:24;101485.44;;;15.24;91.66
71970;BME280;59838;52.152;5.436;2022-08-19T02:11:57;101492.28;;;15.18;91.79
71970;BME280;59838;52.152;5.436;2022-08-19T02:14:24;101483.59;;;15.17;92.16
71970;BME280;59838;52.152;5.436;2022-08-19T02:16:50;101481.81;;;15.18;92.22
71970;BME280;59838;52.152;5.436;2022-08-19T02:19:23;101498.50;;;15.17;92.04
71970;BME280;59838;52.152;5.436;2022-08-19T02:21:50;101489.25;;;15.14;92.33
71970;BME280;59838;52.152;5.436;2022-08-19T02:24:23;101486.78;;;15.06;92.33
71970;BME280;59838;52.152;5.436;2022-08-19T02:26:50;101486.38;;;15.03;92.62
71970;BME280;59838;52.152;5.436;2022-08-19T02:29:23;101494.41;;;15.01;92.46
71970;BME280;59838;52.152;5.436;2022-08-19T02:31:56;101494.63;;;14.99;92.20
71970;BME280;59838;52.152;5.436;2022-08-19T02:34:29;101494.00;;;14.97;92.43
71970;BME280;59838;52.152;5.436;2022-08-19T02:36:55;101502.06;;;14.96;92.25
71970;BME280;59838;52.152;5.436;2022-08-19T02:39:29;101503.22;;;14.93;92.33
71970;BME280;59838;52.152;5.436;2022-08-19T02:41:55;101511.50;;;14.90;92.13
71970;BME280;59838;52.152;5.436;2022-08-19T02:44:29;101506.47;;;14.89;92.47
71970;BME280;59838;52.152;5.436;2022-08-19T02:46:57;101513.66;;;14.87;92.39
71970;BME280;59838;52.152;5.436;2022-08-19T02:49:31;101512.88;;;14.86;92.61
71970;BME280;59838;52.152;5.436;2022-08-19T02:52:00;101514.31;;;14.89;93.20
71970;BME280;59838;52.152;5.436;2022-08-19T02:54:33;101500.00;;;14.91;93.40
71970;BME280;59838;52.152;5.436;2022-08-19T02:57:00;101504.44;;;14.91;93.53
71970;BME280;59838;52.152;5.436;2022-08-19T02:59:33;101511.31;;;14.92;93.48
71970;BME280;59838;52.152;5.436;2022-08-19T03:02:00;101508.69;;;14.92;93.49
71970;BME280;59838;52.152;5.436;2022-08-19T03:04:26;101515.72;;;14.91;93.50
71970;BME280;59838;52.152;5.436;2022-08-19T03:06:59;101514.69;;;14.86;93.51
71970;BME280;59838;52.152;5.436;2022-08-19T03:09:37;101516.03;;;14.75;93.33
71970;BME280;59838;52.152;5.436;2022-08-19T03:12:11;101505.75;;;14.67;93.53
71970;BME280;59838;52.152;5.436;2022-08-19T03:14:38;101500.81;;;14.57;93.66
71970;BME280;59838;52.152;5.436;2022-08-19T03:17:11;101499.00;;;14.57;93.81
71970;BME280;59838;52.152;5.436;2022-08-19T03:19:39;101499.38;;;14.54;94.04
71970;BME280;59838;52.152;5.436;2022-08-19T03:22:05;101491.69;;;14.46;94.03
71970;BME280;59838;52.152;5.436;2022-08-19T03:24:39;101495.53;;;14.43;94.14
71970;BME280;59838;52.152;5.436;2022-08-19T03:27:13;101496.50;;;14.42;94.06
71970;BME280;59838;52.152;5.436;2022-08-19T03:29:46;101490.41;;;14.29;93.83
71970;BME280;59838;52.152;5.436;2022-08-19T03:32:19;101491.69;;;14.11;93.61
71970;BME280;59838;52.152;5.436;2022-08-19T03:34:58;101489.78;;;13.98;93.75
71970;BME280;59838;52.152;5.436;2022-08-19T03:37:25;101487.97;;;13.99;93.72
71970;BME280;59838;52.152;5.436;2022-08-19T03:39:59;101489.41;;;14.01;94.03
71970;BME280;59838;52.152;5.436;2022-08-19T03:42:26;101494.88;;;14.06;94.39
71970;BME280;59838;52.152;5.436;2022-08-19T03:45:19;101497.16;;;14.16;94.74
71970;BME280;59838;52.152;5.436;2022-08-19T03:47:54;101501.63;;;14.22;94.87
71970;BME280;59838;52.152;5.436;2022-08-19T03:50:21;101501.63;;;14.22;94.86
71970;BME280;59838;52.152;5.436;2022-08-19T03:52:49;101503.16;;;14.17;94.61
71970;BME280;59838;52.152;5.436;2022-08-19T03:55:23;101488.06;;;14.12;94.38
71970;BME280;59838;52.152;5.436;2022-08-19T03:57:50;101490.84;;;14.11;94.63
71970;BME280;59838;52.152;5.436;2022-08-19T04:00:29;101484.25;;;14.15;94.87
71970;BME280;59838;52.152;5.436;2022-08-19T04:02:55;101488.63;;;14.07;94.61
71970;BME280;59838;52.152;5.436;2022-08-19T04:05:29;101495.84;;;14.05;95.17
71970;BME280;59838;52.152;5.436;2022-08-19T04:07:55;101488.63;;;14.07;95.48
71970;BME280;59838;52.152;5.436;2022-08-19T04:10:37;101485.81;;;14.09;95.79
71970;BME280;59838;52.152;5.436;2022-08-19T04:13:04;101480.22;;;14.12;95.81
71970;BME280;59838;52.152;5.436;2022-08-19T04:15:44;101478.84;;;14.16;96.30
71970;BME280;59838;52.152;5.436;2022-08-19T04:18:11;101470.63;;;14.19;96.42
71970;BME280;59838;52.152;5.436;2022-08-19T04:20:45;101459.81;;;14.22;96.30
71970;BME280;59838;52.152;5.436;2022-08-19T04:23:13;101468.06;;;14.26;96.59
71970;BME280;59838;52.152;5.436;2022-08-19T04:25:42;101479.53;;;14.32;96.69
71970;BME280;59838;52.152;5.436;2022-08-19T04:28:25;101481.16;;;14.33;96.78
71970;BME280;59838;52.152;5.436;2022-08-19T04:30:59;101481.97;;;14.33;96.96
71970;BME280;59838;52.152;5.436;2022-08-19T04:33:25;101476.56;;;14.35;96.92
71970;BME280;59838;52.152;5.436;2022-08-19T04:35:59;101471.13;;;14.36;96.64
71970;BME280;59838;52.152;5.436;2022-08-19T04:38:26;101478.78;;;14.38;96.86
71970;BME280;59838;52.152;5.436;2022-08-19T04:40:59;101479.63;;;14.38;96.99
71970;BME280;59838;52.152;5.436;2022-08-19T04:43:44;101476.59;;;14.41;96.92
71970;BME280;59838;52.152;5.436;2022-08-19T04:46:21;101481.63;;;14.43;96.63
71970;BME280;59838;52.152;5.436;2022-08-19T04:49:06;101471.34;;;14.41;96.83
71970;BME280;59838;52.152;5.436;2022-08-19T04:51:41;101472.78;;;14.44;96.75
71970;BME280;59838;52.152;5.436;2022-08-19T04:54:16;101482.06;;;14.47;96.68
71970;BME280;59838;52.152;5.436;2022-08-19T04:57:03;101472.03;;;14.50;96.47
71970;BME280;59838;52.152;5.436;2022-08-19T04:59:39;101478.25;;;14.49;96.53
71970;BME280;59838;52.152;5.436;2022-08-19T05:02:07;101477.25;;;14.50;96.81
71970;BME280;59838;52.152;5.436;2022-08-19T05:04:35;101471.13;;;14.65;96.82
71970;BME280;59838;52.152;5.436;2022-08-19T05:07:11;101476.41;;;14.78;96.76
71970;BME280;59838;52.152;5.436;2022-08-19T05:09:45;101484.13;;;14.93;96.22
71970;BME280;59838;52.152;5.436;2022-08-19T05:12:24;101494.91;;;15.18;96.17
71970;BME280;59838;52.152;5.436;2022-08-19T05:14:58;101496.97;;;15.56;95.73
71970;BME280;59838;52.152;5.436;2022-08-19T05:17:25;101493.41;;;15.90;95.17
71970;BME280;59838;52.152;5.436;2022-08-19T05:19:56;101495.38;;;16.49;93.36
71970;BME280;59838;52.152;5.436;2022-08-19T05:22:49;101480.91;;;16.98;90.67
71970;BME280;59838;52.152;5.436;2022-08-19T05:25:19;101497.31;;;17.57;87.11
71970;BME280;59838;52.152;5.436;2022-08-19T05:27:52;101485.25;;;18.06;84.58
71970;BME280;59838;52.152;5.436;2022-08-19T05:30:25;101489.94;;;18.78;81.02
71970;BME280;59838;52.152;5.436;2022-08-19T05:33:12;101482.66;;;19.95;76.66
71970;BME280;59838;52.152;5.436;2022-08-19T05:35:45;101482.78;;;21.05;72.23
71970;BME280;59838;52.152;5.436;2022-08-19T05:38:12;101483.91;;;21.89;68.66
71970;BME280;59838;52.152;5.436;2022-08-19T05:40:45;101484.88;;;22.61;66.18
71970;BME280;59838;52.152;5.436;2022-08-19T05:43:13;101483.03;;;23.11;63.92
71970;BME280;59838;52.152;5.436;2022-08-19T05:45:42;101490.44;;;23.36;62.54
71970;BME280;59838;52.152;5.436;2022-08-19T05:48:15;101490.03;;;23.54;61.85
71970;BME280;59838;52.152;5.436;2022-08-19T05:50:46;101489.06;;;23.66;61.86
71970;BME280;59838;52.152;5.436;2022-08-19T05:53:23;101485.59;;;23.98;61.18
71970;BME280;59838;52.152;5.436;2022-08-19T05:55:57;101493.19;;;24.32;60.19
71970;BME280;59838;52.152;5.436;2022-08-19T05:58:31;101479.50;;;24.60;59.39
71970;BME280;59838;52.152;5.436;2022-08-19T06:00:59;101479.03;;;24.84;58.44
71970;BME280;59838;52.152;5.436;2022-08-19T06:03:36;101477.50;;;25.14;57.62
71970;BME280;59838;52.152;5.436;2022-08-19T06:06:04;101478.03;;;25.31;57.06
71970;BME280;59838;52.152;5.436;2022-08-19T06:08:38;101488.13;;;25.81;55.75
71970;BME280;59838;52.152;5.436;2022-08-19T06:14:18;101486.00;;;25.57;57.20
71970;BME280;59838;52.152;5.436;2022-08-19T06:16:53;101490.81;;;25.50;57.45
71970;BME280;59838;52.152;5.436;2022-08-19T06:19:32;101486.50;;;25.85;56.60
71970;BME280;59838;52.152;5.436;2022-08-19T06:22:06;101488.88;;;26.07;56.62
71970;BME280;59838;52.152;5.436;2022-08-19T06:24:33;101489.56;;;26.33;56.29
71970;BME280;59838;52.152;5.436;2022-08-19T06:27:00;101483.59;;;26.62;55.66
71970;BME280;59838;52.152;5.436;2022-08-19T06:29:33;101484.22;;;26.93;54.64
71970;BME280;59838;52.152;5.436;2022-08-19T06:32:15;101487.97;;;27.27;53.40
71970;BME280;59838;52.152;5.436;2022-08-19T06:34:42;101492.25;;;27.28;53.41
71970;BME280;59838;52.152;5.436;2022-08-19T06:37:15;101487.84;;;27.47;53.54
71970;BME280;59838;52.152;5.436;2022-08-19T06:39:43;101487.72;;;27.58;53.44
71970;BME280;59838;52.152;5.436;2022-08-19T06:42:11;101492.13;;;27.43;53.76
71970;BME280;59838;52.152;5.436;2022-08-19T06:44:49;101490.22;;;27.78;52.77
71970;BME280;59838;52.152;5.436;2022-08-19T06:47:20;101489.34;;;27.83;52.74
71970;BME280;59838;52.152;5.436;2022-08-19T06:49:55;101489.47;;;27.43;53.16
71970;BME280;59838;52.152;5.436;2022-08-19T06:52:32;101495.16;;;26.42;56.23
71970;BME280;59838;52.152;5.436;2022-08-19T06:55:06;101487.34;;;25.44;59.88
71970;BME280;59838;52.152;5.436;2022-08-19T06:57:34;101489.28;;;24.55;63.04
71970;BME280;59838;52.152;5.436;2022-08-19T07:00:00;101496.06;;;23.82;65.48
71970;BME280;59838;52.152;5.436;2022-08-19T07:02:38;101499.34;;;23.25;67.46
71970;BME280;59838;52.152;5.436;2022-08-19T07:05:06;101500.00;;;22.88;69.53
71970;BME280;59838;52.152;5.436;2022-08-19T07:07:41;101507.31;;;22.53;71.03
71970;BME280;59838;52.152;5.436;2022-08-19T07:10:12;101500.59;;;22.28;72.51
71970;BME280;59838;52.152;5.436;2022-08-19T07:12:45;101502.31;;;22.01;72.36
71970;BME280;59838;52.152;5.436;2022-08-19T07:15:14;101500.34;;;21.74;74.89
71970;BME280;59838;52.152;5.436;2022-08-19T07:17:48;101501.28;;;22.02;73.55
71970;BME280;59838;52.152;5.436;2022-08-19T07:20:22;101511.84;;;22.19;73.28
71970;BME280;59838;52.152;5.436;2022-08-19T07:22:53;101521.97;;;22.05;73.29
71970;BME280;59838;52.152;5.436;2022-08-19T07:25:20;101515.66;;;21.89;73.94
71970;BME280;59838;52.152;5.436;2022-08-19T07:27:58;101505.66;;;21.74;75.29
71970;BME280;59838;52.152;5.436;2022-08-19T07:30:26;101507.41;;;21.68;75.85
71970;BME280;59838;52.152;5.436;2022-08-19T07:32:59;101513.25;;;21.53;76.02
71970;BME280;59838;52.152;5.436;2022-08-19T07:35:29;101515.69;;;21.43;76.16
71970;BME280;59838;52.152;5.436;2022-08-19T07:38:04;101513.44;;;21.35;76.64
71970;BME280;59838;52.152;5.436;2022-08-19T07:40:30;101519.34;;;21.25;75.99
71970;BME280;59838;52.152;5.436;2022-08-19T07:42:57;101512.28;;;21.14;77.75
71970;BME280;59838;52.152;5.436;2022-08-19T07:45:31;101511.69;;;21.12;77.78
71970;BME280;59838;52.152;5.436;2022-08-19T07:48:04;101514.16;;;21.02;77.62
71970;BME280;59838;52.152;5.436;2022-08-19T07:50:38;101515.41;;;21.11;78.08
71970;BME280;59838;52.152;5.436;2022-08-19T07:53:12;101521.03;;;21.31;78.13
71970;BME280;59838;52.152;5.436;2022-08-19T07:55:39;101522.69;;;21.49;77.34
71970;BME280;59838;52.152;5.436;2022-08-19T07:58:21;101523.91;;;21.59;76.69
71970;BME280;59838;52.152;5.436;2022-08-19T08:00:54;101524.81;;;21.64;76.25
71970;BME280;59838;52.152;5.436;2022-08-19T08:03:22;101532.66;;;21.59;76.40
71970;BME280;59838;52.152;5.436;2022-08-19T08:06:18;101540.84;;;21.46;77.25
71970;BME280;59838;52.152;5.436;2022-08-19T08:09:04;101539.06;;;21.34;76.97
71970;BME280;59838;52.152;5.436;2022-08-19T08:14:33;101544.16;;;21.24;76.70
71970;BME280;59838;52.152;5.436;2022-08-19T08:17:10;101550.25;;;21.25;76.66
71970;BME280;59838;52.152;5.436;2022-08-19T08:19:37;101552.88;;;21.25;76.80
71970;BME280;59838;52.152;5.436;2022-08-19T08:22:11;101551.81;;;21.37;76.91
71970;BME280;59838;52.152;5.436;2022-08-19T08:25:09;101555.53;;;21.53;76.60
71970;BME280;59838;52.152;5.436;2022-08-19T08:27:44;101555.38;;;21.60;76.38
71970;BME280;59838;52.152;5.436;2022-08-19T08:30:15;101553.88;;;21.64;75.27
71970;BME280;59838;52.152;5.436;2022-08-19T08:32:43;101563.63;;;21.64;75.14
71970;BME280;59838;52.152;5.436;2022-08-19T08:35:20;101577.34;;;21.61;75.55
71970;BME280;59838;52.152;5.436;2022-08-19T08:37:49;101578.88;;;21.57;74.94
71970;BME280;59838;52.152;5.436;2022-08-19T08:40:50;101580.47;;;21.58;74.45
71970;BME280;59838;52.152;5.436;2022-08-19T08:43:32;101577.91;;;21.80;74.80
71970;BME280;59838;52.152;5.436;2022-08-19T08:46:16;101576.91;;;22.15;73.07
71970;BME280;59838;52.152;5.436;2022-08-19T08:52:00;101567.31;;;22.92;70.61
71970;BME280;59838;52.152;5.436;2022-08-19T08:54:39;101572.91;;;23.12;68.70
71970;BME280;59838;52.152;5.436;2022-08-19T09:00:24;101578.41;;;23.33;69.18
71970;BME280;59838;52.152;5.436;2022-08-19T09:02:54;101569.66;;;23.65;69.03
71970;BME280;59838;52.152;5.436;2022-08-19T09:05:59;101571.25;;;23.93;67.08
71970;BME280;59838;52.152;5.436;2022-08-19T09:08:38;101566.91;;;24.14;68.07
71970;BME280;59838;52.152;5.436;2022-08-19T09:11:19;101563.31;;;24.41;65.76
71970;BME280;59838;52.152;5.436;2022-08-19T09:14:20;101570.28;;;24.04;64.60
71970;BME280;59838;52.152;5.436;2022-08-19T09:17:16;101568.19;;;23.79;65.75
71970;BME280;59838;52.152;5.436;2022-08-19T09:19:53;101568.53;;;23.83;66.39
71970;BME280;59838;52.152;5.436;2022-08-19T09:22:28;101568.78;;;24.19;63.68
71970;BME280;59838;52.152;5.436;2022-08-19T09:24:55;101576.78;;;24.24;64.75
71970;BME280;59838;52.152;5.436;2022-08-19T09:27:29;101571.88;;;24.48;63.46
71970;BME280;59838;52.152;5.436;2022-08-19T09:30:20;101566.53;;;25.06;62.62
71970;BME280;59838;52.152;5.436;2022-08-19T09:32:56;101568.19;;;25.38;59.96
71970;BME280;59838;52.152;5.436;2022-08-19T09:35:25;101564.75;;;25.48;61.56
71970;BME280;59838;52.152;5.436;2022-08-19T09:38:20;101571.16;;;25.57;58.72
71970;BME280;59838;52.152;5.436;2022-08-19T09:40:46;101571.09;;;25.26;59.82
71970;BME280;59838;52.152;5.436;2022-08-19T09:43:21;101572.13;;;25.10;61.37
71970;BME280;59838;52.152;5.436;2022-08-19T09:46:00;101569.97;;;24.91;60.12
71970;BME280;59838;52.152;5.436;2022-08-19T09:48:33;101580.59;;;24.91;61.65
71970;BME280;59838;52.152;5.436;2022-08-19T09:51:10;101567.00;;;24.82;61.07
71970;BME280;59838;52.152;5.436;2022-08-19T09:53:48;101566.66;;;24.63;60.80
71970;BME280;59838;52.152;5.436;2022-08-19T09:56:31;101571.88;;;24.48;62.14
71970;BME280;59838;52.152;5.436;2022-08-19T09:59:07;101567.09;;;24.55;61.25
71970;BME280;59838;52.152;5.436;2022-08-19T10:01:42;101571.88;;;24.53;61.98
71970;BME280;59838;52.152;5.436;2022-08-19T10:04:09;101565.84;;;24.63;61.81
71970;BME280;59838;52.152;5.436;2022-08-19T10:06:45;101572.00;;;24.74;60.72
71970;BME280;59838;52.152;5.436;2022-08-19T10:09:20;101563.63;;;25.13;61.69
71970;BME280;59838;52.152;5.436;2022-08-19T10:11:58;101563.66;;;25.28;60.11
71970;BME280;59838;52.152;5.436;2022-08-19T10:14:37;101577.25;;;25.37;62.04
71970;BME280;59838;52.152;5.436;2022-08-19T10:17:05;101566.34;;;25.39;60.35
71970;BME280;59838;52.152;5.436;2022-08-19T10:19:45;101562.09;;;25.68;59.90
71970;BME280;59838;52.152;5.436;2022-08-19T10:22:21;101553.59;;;25.92;58.68
71970;BME280;59838;52.152;5.436;2022-08-19T10:24:50;101563.69;;;26.21;58.50
71970;BME280;59838;52.152;5.436;2022-08-19T10:27:24;101560.25;;;26.00;56.40
71970;BME280;59838;52.152;5.436;2022-08-19T10:30:00;101562.63;;;25.70;58.06
71970;BME280;59838;52.152;5.436;2022-08-19T10:32:27;101561.03;;;25.59;57.60
71970;BME280;59838;52.152;5.436;2022-08-19T10:35:03;101562.09;;;26.04;56.82
71970;BME280;59838;52.152;5.436;2022-08-19T10:37:36;101553.56;;;26.18;55.43
71970;BME280;59838;52.152;5.436;2022-08-19T10:40:22;101558.59;;;26.14;54.84
71970;BME280;59838;52.152;5.436;2022-08-19T10:42:48;101550.94;;;25.97;55.38
71970;BME280;59838;52.152;5.436;2022-08-19T10:45:23;101550.38;;;25.85;56.69
71970;BME280;59838;52.152;5.436;2022-08-19T10:47:53;101554.84;;;26.25;57.92
71970;BME280;59838;52.152;5.436;2022-08-19T10:50:27;101546.03;;;26.40;56.27
71970;BME280;59838;52.152;5.436;2022-08-19T10:53:13;101547.50;;;26.72;57.71
71970;BME280;59838;52.152;5.436;2022-08-19T10:55:48;101549.03;;;26.89;56.16
71970;BME280;59838;52.152;5.436;2022-08-19T10:58:48;101545.22;;;27.05;56.25
71970;BME280;59838;52.152;5.436;2022-08-19T11:01:21;101544.06;;;27.16;55.35
71970;BME280;59838;52.152;5.436;2022-08-19T11:03:48;101537.13;;;27.15;54.25
71970;BME280;59838;52.152;5.436;2022-08-19T11:06:23;101538.19;;;27.14;55.19
71970;BME280;59838;52.152;5.436;2022-08-19T11:08:52;101532.16;;;27.04;53.50
71970;BME280;59838;52.152;5.436;2022-08-19T11:11:26;101541.16;;;27.13;55.56
71970;BME280;59838;52.152;5.436;2022-08-19T11:13:52;101547.22;;;27.24;55.70
71970;BME280;59838;52.152;5.436;2022-08-19T11:16:22;101542.44;;;27.21;54.97
71970;BME280;59838;52.152;5.436;2022-08-19T11:18:57;101533.38;;;27.22;54.05
71970;BME280;59838;52.152;5.436;2022-08-19T11:21:31;101536.25;;;27.30;55.20
71970;BME280;59838;52.152;5.436;2022-08-19T11:24:14;101533.31;;;27.32;55.84
71970;BME280;59838;52.152;5.436;2022-08-19T11:26:43;101535.28;;;27.50;54.95
71970;BME280;59838;52.152;5.436;2022-08-19T11:29:19;101534.44;;;27.60;55.04
71970;BME280;59838;52.152;5.436;2022-08-19T11:31:48;101527.06;;;27.47;55.12
71970;BME280;59838;52.152;5.436;2022-08-19T11:34:25;101526.22;;;27.81;54.84
71970;BME280;59838;52.152;5.436;2022-08-19T11:36:54;101528.44;;;28.03;55.24
71970;BME280;59838;52.152;5.436;2022-08-19T11:39:33;101524.09;;;27.78;53.58
71970;BME280;59838;52.152;5.436;2022-08-19T11:42:02;101521.81;;;27.66;53.87
71970;BME280;59838;52.152;5.436;2022-08-19T11:44:56;101523.09;;;27.44;56.19
71970;BME280;59838;52.152;5.436;2022-08-19T11:47:23;101521.56;;;27.33;55.42
71970;BME280;59838;52.152;5.436;2022-08-19T11:49:50;101521.09;;;27.60;58.10
71970;BME280;59838;52.152;5.436;2022-08-19T11:52:23;101523.66;;;27.70;56.33
71970;BME280;59838;52.152;5.436;2022-08-19T11:54:50;101516.09;;;27.48;55.09
71970;BME280;59838;52.152;5.436;2022-08-19T11:57:23;101522.53;;;27.08;56.89
71970;BME280;59838;52.152;5.436;2022-08-19T11:59:52;101523.03;;;27.15;57.13
71970;BME280;59838;52.152;5.436;2022-08-19T12:02:19;101527.25;;;27.16;57.45
71970;BME280;59838;52.152;5.436;2022-08-19T12:04:52;101514.66;;;27.27;56.22
71970;BME280;59838;52.152;5.436;2022-08-19T12:07:19;101518.22;;;27.51;56.53
71970;BME280;59838;52.152;5.436;2022-08-19T12:09:54;101524.84;;;27.83;55.04
71970;BME280;59838;52.152;5.436;2022-08-19T12:12:28;101519.25;;;27.85;53.14
71970;BME280;59838;52.152;5.436;2022-08-19T12:15:02;101521.75;;;27.42;55.70
71970;BME280;59838;52.152;5.436;2022-08-19T12:17:29;101529.59;;;27.23;56.66
71970;BME280;59838;52.152;5.436;2022-08-19T12:20:05;101525.47;;;27.06;56.74
71970;BME280;59838;52.152;5.436;2022-08-19T12:22:32;101524.34;;;26.68;57.64
71970;BME280;59838;52.152;5.436;2022-08-19T12:25:06;101530.53;;;26.48;58.35
71970;BME280;59838;52.152;5.436;2022-08-19T12:27:40;101529.03;;;26.26;59.84
71970;BME280;59838;52.152;5.436;2022-08-19T12:30:15;101528.00;;;26.12;61.38
71970;BME280;59838;52.152;5.436;2022-08-19T12:32:48;101528.53;;;25.93;61.20
71970;BME280;59838;52.152;5.436;2022-08-19T12:35:15;101532.28;;;25.82;62.36
71970;BME280;59838;52.152;5.436;2022-08-19T12:37:48;101527.22;;;25.75;63.59
71970;BME280;59838;52.152;5.436;2022-08-19T12:40:22;101529.38;;;25.63;63.65
71970;BME280;59838;52.152;5.436;2022-08-19T12:42:55;101535.25;;;25.54;63.97
71970;BME280;59838;52.152;5.436;2022-08-19T12:45:21;101531.78;;;25.33;65.07
71970;BME280;59838;52.152;5.436;2022-08-19T12:47:48;101531.97;;;25.06;65.64
71970;BME280;59838;52.152;5.436;2022-08-19T12:50:22;101538.03;;;24.81;66.43
71970;BME280;59838;52.152;5.436;2022-08-19T12:52:49;101535.34;;;24.81;67.08
71970;BME280;59838;52.152;5.436;2022-08-19T12:55:22;101536.22;;;25.02;65.65
71970;BME280;59838;52.152;5.436;2022-08-19T12:58:02;101536.50;;;25.16;66.18
71970;BME280;59838;52.152;5.436;2022-08-19T13:00:29;101530.16;;;25.22;65.17
71970;BME280;59838;52.152;5.436;2022-08-19T13:03:06;101521.13;;;25.44;65.83
71970;BME280;59838;52.152;5.436;2022-08-19T13:05:33;101519.00;;;25.87;64.96
71970;BME280;59838;52.152;5.436;2022-08-19T13:08:06;101522.69;;;26.01;63.28
71970;BME280;59838;52.152;5.436;2022-08-19T13:10:39;101517.59;;;26.15;62.19
71970;BME280;59838;52.152;5.436;2022-08-19T13:13:08;101521.88;;;26.11;62.99
71970;BME280;59838;52.152;5.436;2022-08-19T13:15:42;101522.16;;;25.94;62.38
71970;BME280;59838;52.152;5.436;2022-08-19T13:18:11;101523.25;;;25.72;63.09
71970;BME280;59838;52.152;5.436;2022-08-19T13:20:48;101526.47;;;25.39;64.12
71970;BME280;59838;52.152;5.436;2022-08-19T13:23:18;101523.00;;;25.33;64.87
71970;BME280;59838;52.152;5.436;2022-08-19T13:25:57;101533.88;;;25.36;65.59
71970;BME280;59838;52.152;5.436;2022-08-19T13:28:24;101532.53;;;25.24;65.96
71970;BME280;59838;52.152;5.436;2022-08-19T13:30:58;101534.09;;;25.04;69.64
71970;BME280;59838;52.152;5.436;2022-08-19T13:33:43;101528.47;;;24.80;71.27
71970;BME280;59838;52.152;5.436;2022-08-19T13:36:18;101519.66;;;24.69;72.47
71970;BME280;59838;52.152;5.436;2022-08-19T13:38:44;101524.38;;;24.57;74.07